createdAt,value
2023-09-29T00:08:22.350Z,78.12
2023-09-29T00:12:11.402Z,78.29
2023-09-29T00:15:59.774Z,78.30
2023-09-29T00:19:49.019Z,78.46
2023-09-29T00:23:23.339Z,78.60
2023-09-29T00:42:42.963Z,79.13
2023-09-29T00:46:32.332Z,79.23
2023-09-29T00:50:22.055Z,79.42
2023-09-29T00:54:11.107Z,79.66
2023-09-29T00:58:27.063Z,79.66
2023-09-29T01:02:10.360Z,79.69
2023-09-29T01:06:00.668Z,79.85
2023-09-29T01:09:50.598Z,79.95
2023-09-29T01:25:28.640Z,80.14
2023-09-29T01:29:17.046Z,80.20
2023-09-29T01:33:06.405Z,80.39
2023-09-29T01:36:47.237Z,80.46
2023-09-29T01:40:36.578Z,80.54
2023-09-29T01:44:27.422Z,80.65
2023-09-29T02:03:55.287Z,81.14
2023-09-29T02:07:37.996Z,81.43
2023-09-29T02:11:29.534Z,81.58
2023-09-29T02:15:19.270Z,81.72
2023-09-29T02:34:28.871Z,82.03
2023-09-29T02:38:12.211Z,82.10
2023-09-29T02:42:02.010Z,82.09
2023-09-29T02:45:51.669Z,82.03
2023-09-29T03:05:18.623Z,82.38
2023-09-29T03:09:08.080Z,82.72
2023-09-29T03:12:58.523Z,82.77
2023-09-29T03:16:48.296Z,82.84
2023-09-29T03:20:38.948Z,82.85
2023-09-29T03:40:03.890Z,83.04
2023-09-29T03:43:53.211Z,82.99
2023-09-29T03:47:44.084Z,83.11
2023-09-29T04:03:02.681Z,83.83
2023-09-29T04:07:15.663Z,83.95
2023-09-29T04:11:07.387Z,84.22
2023-09-29T04:14:57.160Z,84.34
2023-09-29T04:34:21.764Z,84.36
2023-09-29T04:38:13.609Z,84.46
2023-09-29T04:42:02.915Z,84.51
2023-09-29T04:45:53.457Z,84.55
2023-09-29T05:08:35.319Z,85.34
2023-09-29T05:12:25.011Z,85.43
2023-09-29T05:16:14.305Z,85.40
2023-09-29T05:19:58.522Z,85.27
2023-09-29T05:42:50.884Z,86.08
2023-09-29T05:46:40.293Z,86.20
2023-09-29T05:50:29.895Z,86.56
2023-09-29T06:16:27.144Z,82.62
2023-09-29T06:19:49.610Z,81.68
2023-09-29T06:23:38.777Z,80.97
2023-09-29T06:27:01.388Z,79.89
2023-09-29T06:29:35.870Z,79.68
2023-09-29T06:32:11.943Z,79.06
2023-09-29T06:35:13.463Z,79.10
2023-09-29T06:37:47.468Z,79.66
2023-09-29T06:40:19.479Z,79.65
2023-09-29T06:42:57.027Z,78.59
2023-09-29T06:45:57.248Z,77.86
2023-09-29T06:48:32.379Z,77.53
2023-09-29T06:51:24.806Z,76.77
2023-09-29T06:54:03.951Z,75.50
2023-09-29T06:56:42.695Z,75.93
2023-09-29T06:59:12.343Z,76.49
2023-09-29T07:02:43.842Z,76.22
2023-09-29T07:05:47.610Z,75.94
2023-09-29T07:08:39.393Z,75.59
2023-09-29T07:11:11.040Z,75.28
2023-09-29T07:13:53.305Z,75.78
2023-09-29T07:16:30.130Z,75.68
2023-09-29T07:19:45.471Z,75.75
2023-09-29T07:22:42.035Z,75.60
2023-09-29T07:26:01.297Z,76.39
2023-09-29T07:28:42.099Z,75.28
2023-09-29T07:32:20.153Z,75.17
2023-09-29T07:35:14.033Z,75.28
2023-09-29T07:38:31.804Z,75.17
2023-09-29T07:41:03.104Z,75.44
2023-09-29T07:44:52.405Z,75.27
2023-09-29T07:47:48.791Z,74.94
2023-09-29T07:51:10.930Z,74.70
2023-09-29T07:54:01.974Z,75.13
2023-09-29T07:56:52.180Z,75.07
2023-09-29T07:59:46.154Z,75.14
2023-09-29T08:02:26.832Z,74.65
2023-09-29T08:05:36.404Z,74.59
2023-09-29T08:08:25.760Z,74.54
2023-09-29T08:11:02.348Z,74.30
2023-09-29T08:13:39.368Z,73.70
2023-09-29T08:16:36.280Z,73.16
2023-09-29T08:19:29.801Z,73.10
2023-09-29T08:22:39.921Z,72.90
2023-09-29T08:25:24.649Z,72.85
2023-09-29T08:28:33.885Z,72.70
2023-09-29T08:31:28.987Z,72.58
2023-09-29T08:34:11.447Z,72.07
2023-09-29T08:37:31.656Z,71.49
2023-09-29T08:40:38.362Z,70.65
2023-09-29T08:44:04.141Z,70.42
2023-09-29T08:47:01.697Z,69.75
2023-09-29T08:49:50.192Z,70.00
2023-09-29T08:53:19.973Z,69.59
2023-09-29T08:56:06.718Z,69.37
2023-09-29T08:58:55.686Z,68.56
2023-09-29T09:01:29.502Z,68.34
2023-09-29T09:04:01.818Z,67.51
2023-09-29T09:06:34.548Z,67.15
2023-09-29T09:09:26.287Z,66.57
2023-09-29T09:12:07.766Z,66.20
2023-09-29T09:14:46.312Z,65.75
2023-09-29T09:17:35.029Z,65.32
2023-09-29T09:20:29.271Z,65.28
2023-09-29T09:23:48.717Z,65.16
2023-09-29T09:26:20.563Z,64.21
2023-09-29T09:28:48.920Z,63.64
2023-09-29T09:32:17.063Z,63.45
2023-09-29T09:34:45.415Z,62.67
2023-09-29T09:38:00.635Z,62.86
2023-09-29T09:40:33.720Z,62.14
2023-09-29T09:43:28.052Z,60.84
2023-09-29T09:46:32.109Z,60.94
2023-09-29T09:49:11.904Z,60.17
2023-09-29T09:51:55.885Z,59.50
2023-09-29T09:54:42.250Z,58.80
2023-09-29T09:57:15.464Z,58.09
2023-09-29T10:00:27.405Z,57.75
2023-09-29T10:03:27.981Z,57.03
2023-09-29T10:06:06.828Z,56.33
2023-09-29T10:09:24.588Z,55.50
2023-09-29T10:12:32.937Z,55.42
2023-09-29T10:15:21.762Z,55.09
2023-09-29T10:18:24.642Z,54.71
2023-09-29T10:21:05.384Z,54.12
2023-09-29T10:23:52.063Z,53.04
2023-09-29T10:26:49.927Z,52.65
2023-09-29T10:29:51.414Z,52.70
2023-09-29T10:32:46.764Z,52.18
2023-09-29T10:35:40.014Z,51.83
2023-09-29T10:39:00.038Z,51.27
2023-09-29T10:41:43.614Z,50.82
2023-09-29T10:44:24.409Z,50.57
2023-09-29T10:47:23.183Z,50.46
2023-09-29T10:49:56.542Z,50.19
2023-09-29T10:52:31.071Z,50.03
2023-09-29T10:55:00.389Z,49.56
2023-09-29T10:57:34.337Z,50.10
2023-09-29T11:00:07.093Z,49.52
2023-09-29T11:02:38.631Z,49.36
2023-09-29T11:05:11.146Z,49.44
2023-09-29T11:07:52.302Z,48.86
2023-09-29T11:10:41.093Z,48.71
2023-09-29T11:13:18.721Z,48.67
2023-09-29T11:15:47.823Z,48.53
2023-09-29T11:18:42.990Z,48.08
2023-09-29T11:21:12.397Z,47.40
2023-09-29T11:23:45.800Z,47.17
2023-09-29T11:26:50.002Z,47.34
2023-09-29T11:29:25.315Z,47.07
2023-09-29T11:31:54.938Z,46.85
2023-09-29T11:34:24.145Z,46.58
2023-09-29T11:36:54.970Z,46.67
2023-09-29T11:39:25.979Z,46.72
2023-09-29T11:41:54.445Z,46.66
2023-09-29T11:44:29.472Z,46.74
2023-09-29T11:46:58.578Z,46.12
2023-09-29T11:49:27.244Z,45.62
2023-09-29T11:52:04.956Z,45.39
2023-09-29T11:54:33.319Z,44.70
2023-09-29T11:57:03.127Z,44.23
2023-09-29T11:59:44.742Z,43.97
2023-09-29T12:02:18.731Z,43.63
2023-09-29T12:04:49.964Z,43.10
2023-09-29T12:07:20.318Z,43.11
2023-09-29T12:09:48.575Z,42.52
2023-09-29T12:12:32.356Z,42.34
2023-09-29T12:15:01.232Z,41.99
2023-09-29T12:17:42.891Z,41.82
2023-09-29T12:20:15.171Z,41.87
2023-09-29T12:22:47.927Z,41.39
2023-09-29T12:25:16.621Z,41.13
2023-09-29T12:27:47.278Z,40.58
2023-09-29T12:30:22.933Z,40.62
2023-09-29T12:33:05.317Z,40.54
2023-09-29T12:35:45.491Z,40.43
2023-09-29T12:38:13.877Z,39.98
2023-09-29T12:40:43.965Z,39.48
2023-09-29T12:43:26.228Z,39.23
2023-09-29T12:46:00.254Z,39.06
2023-09-29T12:48:28.641Z,38.80
2023-09-29T12:50:57.408Z,39.07
2023-09-29T12:53:36.451Z,39.10
2023-09-29T12:56:05.614Z,39.53
2023-09-29T12:58:34.330Z,39.68
2023-09-29T13:01:11.880Z,40.07
2023-09-29T13:03:47.321Z,39.76
2023-09-29T13:06:16.288Z,39.67
2023-09-29T13:08:45.420Z,39.24
2023-09-29T13:11:17.668Z,39.16
2023-09-29T13:13:52.295Z,39.35
2023-09-29T13:16:20.877Z,39.21
2023-09-29T13:19:04.110Z,39.13
2023-09-29T13:21:35.312Z,38.55
2023-09-29T13:24:04.243Z,38.89
2023-09-29T13:26:37.392Z,38.68
2023-09-29T13:29:05.868Z,38.62
2023-09-29T13:31:54.617Z,39.58
2023-09-29T13:34:25.904Z,39.42
2023-09-29T13:37:01.254Z,39.30
2023-09-29T13:39:29.650Z,39.54
2023-09-29T13:41:58.866Z,38.98
2023-09-29T13:44:27.579Z,38.47
2023-09-29T13:47:12.180Z,38.59
2023-09-29T13:49:43.362Z,37.93
2023-09-29T13:52:25.016Z,37.68
2023-09-29T13:55:02.713Z,37.92
2023-09-29T13:57:33.764Z,37.99
2023-09-29T14:00:03.051Z,38.07
2023-09-29T14:03:03.021Z,38.43
2023-09-29T14:05:37.925Z,38.84
2023-09-29T14:08:51.214Z,38.74
2023-09-29T14:11:44.320Z,39.22
2023-09-29T14:14:13.091Z,39.44
2023-09-29T14:16:53.022Z,39.30
2023-09-29T14:19:21.550Z,39.74
2023-09-29T14:22:10.764Z,39.78
2023-09-29T14:24:54.919Z,39.87
2023-09-29T14:27:39.279Z,40.20
2023-09-29T14:30:11.031Z,40.29
2023-09-29T14:32:49.452Z,40.54
2023-09-29T14:35:46.372Z,40.90
2023-09-29T14:38:21.959Z,41.11
2023-09-29T14:40:57.098Z,41.36
2023-09-29T14:43:58.155Z,41.36
2023-09-29T14:46:29.116Z,41.61
2023-09-29T14:49:08.752Z,41.75
2023-09-29T14:51:42.851Z,41.88
2023-09-29T14:54:15.687Z,42.02
2023-09-29T14:56:49.539Z,42.10
2023-09-29T14:59:20.539Z,42.42
2023-09-29T15:01:54.473Z,42.60
2023-09-29T15:04:29.667Z,42.88
2023-09-29T15:07:02.084Z,43.17
2023-09-29T15:10:00.432Z,43.16
2023-09-29T15:12:51.130Z,43.32
2023-09-29T15:15:43.111Z,43.36
2023-09-29T15:18:40.770Z,43.54
2023-09-29T15:21:12.325Z,43.84
2023-09-29T15:24:01.765Z,44.24
2023-09-29T15:27:01.375Z,44.32
2023-09-29T15:29:53.844Z,44.67
2023-09-29T15:32:29.986Z,44.84
2023-09-29T15:35:10.006Z,44.96
2023-09-29T15:37:44.259Z,45.04
2023-09-29T15:40:25.348Z,45.32
2023-09-29T15:43:45.374Z,45.28
2023-09-29T15:46:31.861Z,45.49
2023-09-29T15:49:51.031Z,45.58
2023-09-29T15:52:39.204Z,45.77
2023-09-29T15:55:11.712Z,45.93
2023-09-29T15:57:50.814Z,46.18
2023-09-29T16:00:44.769Z,46.09
2023-09-29T16:03:38.358Z,46.40
2023-09-29T16:06:18.208Z,46.59
2023-09-29T16:08:55.786Z,46.81
2023-09-29T16:12:44.685Z,47.01
2023-09-29T16:16:33.922Z,47.33
2023-09-29T16:19:14.320Z,47.38
2023-09-29T16:22:23.702Z,47.57
2023-09-29T16:26:13.056Z,47.77
2023-09-29T16:29:14.921Z,48.12
2023-09-29T16:32:37.018Z,48.64
2023-09-29T16:36:14.571Z,49.29
2023-09-29T16:39:09.407Z,49.60
2023-09-29T16:42:30.828Z,50.00
2023-09-29T16:45:56.109Z,50.28
2023-09-29T16:49:07.886Z,50.66
2023-09-29T16:52:27.555Z,51.06
2023-09-29T16:55:40.720Z,51.33
2023-09-29T16:59:00.948Z,51.70
2023-09-29T17:02:49.365Z,52.09
2023-09-29T17:06:32.218Z,52.55
2023-09-29T17:10:00.822Z,52.92
2023-09-29T18:17:29.495Z,57.19
2023-09-29T18:21:04.288Z,57.14
2023-09-29T18:24:54.802Z,57.24
2023-09-29T18:27:59.479Z,57.65
2023-09-29T18:31:49.993Z,57.70
2023-09-29T18:35:20.857Z,57.92
2023-09-29T18:38:42.009Z,58.56
2023-09-29T18:42:08.554Z,58.79
2023-09-29T18:45:58.314Z,58.98
2023-09-29T18:49:36.533Z,59.15
2023-09-29T19:23:13.981Z,60.50
2023-09-29T19:27:04.577Z,61.03
2023-09-29T19:30:55.265Z,61.18
2023-09-29T19:34:43.701Z,61.32
2023-09-29T19:38:26.875Z,61.15
2023-09-29T19:57:27.590Z,61.35
2023-09-29T20:01:18.127Z,61.37
2023-09-29T20:05:01.235Z,61.49
2023-09-29T20:08:52.060Z,61.60
2023-09-29T20:27:39.131Z,61.74
2023-09-29T20:31:29.311Z,61.89
2023-09-29T20:35:02.257Z,61.89
2023-09-29T20:38:33.367Z,61.98
2023-09-29T20:42:23.305Z,62.12
2023-09-29T20:46:13.864Z,62.46
2023-09-29T21:09:19.059Z,62.54
2023-09-29T21:13:08.553Z,62.61
2023-09-29T21:17:04.085Z,62.81
2023-09-29T21:32:14.496Z,63.09
2023-09-29T21:35:58.348Z,63.36
2023-09-29T21:39:49.852Z,63.47
2023-09-29T21:43:39.283Z,63.59
2023-09-29T21:47:29.212Z,63.56
2023-09-29T21:51:20.231Z,63.77
2023-09-29T22:14:26.127Z,64.39
2023-09-29T22:18:17.972Z,64.42
2023-09-29T22:22:08.197Z,64.36
2023-09-29T22:25:58.583Z,64.50
2023-09-29T22:29:49.485Z,64.69
2023-09-29T22:49:17.276Z,65.05
2023-09-29T22:53:05.226Z,65.20
2023-09-29T22:56:54.699Z,65.36
2023-09-29T23:00:44.856Z,65.43
2023-09-29T23:16:27.523Z,65.77
2023-09-29T23:20:19.109Z,65.86
2023-09-29T23:24:10.351Z,65.93
2023-09-29T23:27:52.653Z,66.05
2023-09-29T23:43:14.983Z,66.28
2023-09-29T23:47:05.030Z,66.36
2023-09-29T23:50:48.448Z,66.35
2023-09-29T23:54:38.790Z,66.43
2023-09-29T23:58:28.979Z,66.51
